createdAt,value
2018-02-21T00:00:33.401Z,33.63
2018-02-21T00:03:02.845Z,38.63
2018-02-21T00:05:32.241Z,40.00
2018-02-21T00:08:01.633Z,40.67
2018-02-21T00:10:35.423Z,41.33
2018-02-21T00:13:05.621Z,45.80
2018-02-21T00:15:35.026Z,38.53
2018-02-21T00:18:04.456Z,36.40
2018-02-21T00:20:33.866Z,39.67
2018-02-21T00:23:03.280Z,40.47
2018-02-21T00:25:32.680Z,39.13
2018-02-21T00:28:02.100Z,36.47
2018-02-21T00:30:31.231Z,38.50
2018-02-21T00:33:00.656Z,43.57
2018-02-21T00:35:30.826Z,36.57
2018-02-21T00:38:00.245Z,40.33
2018-02-21T00:40:29.705Z,45.00
2018-02-21T00:42:59.099Z,40.70
2018-02-21T00:45:28.735Z,46.00
2018-02-21T00:47:58.165Z,40.33
2018-02-21T00:50:27.593Z,42.93
2018-02-21T00:52:57.777Z,41.97
2018-02-21T00:55:27.205Z,44.00
2018-02-21T00:57:56.610Z,39.37
2018-02-21T01:00:26.532Z,43.50
2018-02-21T01:02:55.951Z,39.60
2018-02-21T01:05:25.350Z,41.93
2018-02-21T01:07:54.758Z,40.30
2018-02-21T01:10:24.168Z,40.47
2018-02-21T01:12:53.586Z,39.53
2018-02-21T01:15:22.985Z,43.03
2018-02-21T01:17:52.416Z,42.93
2018-02-21T01:20:21.851Z,44.57
2018-02-21T01:22:51.260Z,42.70
2018-02-21T01:25:20.668Z,38.77
2018-02-21T01:27:50.096Z,41.70
2018-02-21T01:30:19.519Z,38.77
2018-02-21T01:32:48.948Z,37.17
2018-02-21T01:35:18.368Z,42.77
2018-02-21T01:37:47.773Z,41.33
2018-02-21T01:40:17.183Z,41.23
2018-02-21T01:42:46.604Z,46.37
2018-02-21T01:45:16.024Z,52.30
2018-02-21T01:47:45.424Z,46.77
2018-02-21T01:50:14.537Z,44.73
2018-02-21T01:52:43.664Z,45.10
2018-02-21T01:55:14.601Z,42.37
2018-02-21T01:57:43.994Z,48.10
2018-02-21T02:00:13.195Z,46.57
2018-02-21T02:02:42.352Z,48.10
2018-02-21T02:05:11.770Z,50.70
2018-02-21T02:07:41.182Z,46.43
2018-02-21T02:10:10.584Z,49.50
2018-02-21T02:12:39.992Z,43.27
2018-02-21T02:15:09.392Z,42.93
2018-02-21T02:17:40.039Z,42.50
2018-02-21T02:20:08.847Z,44.10
2018-02-21T02:22:37.963Z,42.73
2018-02-21T02:25:07.395Z,42.67
2018-02-21T02:27:38.327Z,49.77
2018-02-21T02:30:07.727Z,44.03
2018-02-21T02:32:37.146Z,43.07
2018-02-21T02:35:06.550Z,43.30
2018-02-21T02:37:35.975Z,45.83
2018-02-21T02:40:05.052Z,50.83
2018-02-21T02:42:34.495Z,45.27
2018-02-21T02:45:03.560Z,44.13
2018-02-21T02:47:33.740Z,48.60
2018-02-21T02:50:03.137Z,41.53
2018-02-21T02:52:32.549Z,49.67
2018-02-21T02:55:01.675Z,45.47
2018-02-21T02:57:31.096Z,43.13
2018-02-21T03:00:00.513Z,42.30
2018-02-21T03:02:29.648Z,44.33
2018-02-21T03:04:59.099Z,43.80
2018-02-21T03:07:28.510Z,47.17
2018-02-21T03:09:57.912Z,49.77
2018-02-21T03:12:28.105Z,42.60
2018-02-21T03:14:57.509Z,49.47
2018-02-21T03:17:26.927Z,54.10
2018-02-21T03:19:56.357Z,44.17
2018-02-21T03:22:25.760Z,48.00
2018-02-21T03:24:55.171Z,45.57
2018-02-21T03:27:24.567Z,48.97
2018-02-21T03:29:53.988Z,51.47
2018-02-21T03:32:23.392Z,47.57
2018-02-21T03:34:52.823Z,51.33
2018-02-21T03:37:24.060Z,54.67
2018-02-21T03:39:53.519Z,58.50
2018-02-21T03:42:22.913Z,54.87
2018-02-21T03:44:52.333Z,47.90
2018-02-21T03:47:21.744Z,46.33
2018-02-21T03:49:51.168Z,51.33
2018-02-21T03:52:21.055Z,49.90
2018-02-21T03:54:50.464Z,51.13
2018-02-21T03:57:19.896Z,46.93
2018-02-21T03:59:49.312Z,61.23
2018-02-21T04:02:18.732Z,60.37
2018-02-21T04:04:48.125Z,51.00
2018-02-21T04:07:17.541Z,56.43
2018-02-21T04:09:46.936Z,53.77
2018-02-21T04:12:17.117Z,56.57
2018-02-21T04:14:46.515Z,56.83
2018-02-21T04:17:15.935Z,57.37
2018-02-21T04:19:45.330Z,54.53
2018-02-21T04:22:14.769Z,52.17
2018-02-21T04:24:44.170Z,51.90
2018-02-21T04:27:13.583Z,55.63
2018-02-21T04:29:43.028Z,55.80
2018-02-21T04:32:13.375Z,54.80
2018-02-21T04:34:42.793Z,51.87
2018-02-21T04:37:12.208Z,49.43
2018-02-21T04:39:41.436Z,49.10
2018-02-21T04:42:10.844Z,46.90
2018-02-21T04:44:40.260Z,52.97
2018-02-21T04:47:09.660Z,50.80
2018-02-21T04:49:39.076Z,48.13
2018-02-21T04:52:08.488Z,49.47
2018-02-21T04:54:43.325Z,53.13
2018-02-21T04:57:22.437Z,53.60
2018-02-21T04:59:54.184Z,51.77
2018-02-21T05:02:24.149Z,55.43
2018-02-21T05:04:53.673Z,56.30
2018-02-21T05:07:23.048Z,46.87
2018-02-21T05:09:53.249Z,54.73
2018-02-21T05:12:23.146Z,52.43
2018-02-21T05:14:52.562Z,56.87
2018-02-21T05:17:21.697Z,55.00
2018-02-21T05:19:51.115Z,51.60
2018-02-21T05:22:20.574Z,52.47
2018-02-21T05:24:50.000Z,45.80
2018-02-21T05:27:19.411Z,56.80
2018-02-21T05:32:21.055Z,50.20
2018-02-21T05:34:50.492Z,48.50
2018-02-21T05:37:20.693Z,48.10
2018-02-21T05:39:50.184Z,51.73
2018-02-21T05:42:19.597Z,51.33
2018-02-21T05:44:49.007Z,51.47
2018-02-21T05:47:18.433Z,50.97
2018-02-21T05:49:47.845Z,57.87
2018-02-21T05:52:17.237Z,50.17
2018-02-21T05:54:46.704Z,51.90
2018-02-21T05:57:15.785Z,50.53
2018-02-21T05:59:45.219Z,56.60
2018-02-21T06:02:14.623Z,55.90
2018-02-21T06:04:44.239Z,54.10
2018-02-21T06:07:13.709Z,43.07
2018-02-21T06:09:43.882Z,59.47
2018-02-21T06:12:13.302Z,55.20
2018-02-21T06:14:42.716Z,57.30
2018-02-21T06:17:12.140Z,54.43
2018-02-21T06:19:41.755Z,51.60
2018-02-21T06:22:11.153Z,54.83
2018-02-21T06:24:40.552Z,54.97
2018-02-21T06:27:10.018Z,59.50
2018-02-21T06:29:39.426Z,56.27
2018-02-21T06:32:08.860Z,62.97
2018-02-21T06:34:38.472Z,58.80
2018-02-21T06:37:07.895Z,53.23
2018-02-21T06:39:37.321Z,60.60
2018-02-21T06:42:06.764Z,55.67
2018-02-21T06:44:36.206Z,67.27
2018-02-21T06:47:05.611Z,55.37
2018-02-21T06:49:35.043Z,62.10
2018-02-21T06:52:04.444Z,58.03
2018-02-21T06:54:33.874Z,51.23
2018-02-21T06:57:03.300Z,60.53
2018-02-21T06:59:32.727Z,64.63
2018-02-21T07:02:02.156Z,60.40
2018-02-21T07:04:31.296Z,60.70
2018-02-21T07:07:00.708Z,52.43
2018-02-21T07:09:30.128Z,56.53
2018-02-21T07:11:59.674Z,51.93
2018-02-21T07:14:29.084Z,56.00
2018-02-21T07:16:58.506Z,52.37
2018-02-21T07:19:27.921Z,58.43
2018-02-21T07:21:57.336Z,56.87
2018-02-21T07:24:26.816Z,52.87
2018-02-21T07:26:56.239Z,54.37
2018-02-21T07:29:25.670Z,59.10
2018-02-21T07:31:55.055Z,54.80
2018-02-21T07:34:25.225Z,58.90
2018-02-21T07:36:54.911Z,54.97
2018-02-21T07:39:24.324Z,54.53
2018-02-21T07:41:54.512Z,59.83
2018-02-21T07:44:23.965Z,54.63
2018-02-21T07:46:54.143Z,60.93
2018-02-21T07:49:23.559Z,51.97
2018-02-21T07:51:52.960Z,57.17
2018-02-21T07:54:22.376Z,56.57
2018-02-21T07:56:51.800Z,58.73
2018-02-21T07:59:22.193Z,52.93
2018-02-21T08:01:52.356Z,49.87
2018-02-21T08:04:21.788Z,52.93
2018-02-21T08:06:51.198Z,55.80
2018-02-21T08:09:20.659Z,58.43
2018-02-21T08:11:50.068Z,56.27
2018-02-21T08:14:19.495Z,58.80
2018-02-21T08:16:49.699Z,63.47
2018-02-21T08:19:19.116Z,61.00
2018-02-21T08:21:48.532Z,63.53
2018-02-21T08:24:17.950Z,51.70
2018-02-21T08:26:47.364Z,50.10
2018-02-21T08:29:16.763Z,57.50
2018-02-21T08:31:46.176Z,56.03
2018-02-21T08:34:15.585Z,68.23
2018-02-21T08:36:44.992Z,60.47
2018-02-21T08:39:14.409Z,51.20
2018-02-21T08:41:43.806Z,58.17
2018-02-21T08:44:13.231Z,56.07
2018-02-21T08:46:42.645Z,48.77
2018-02-21T08:49:12.059Z,62.70
2018-02-21T08:51:41.456Z,52.73
2018-02-21T08:54:11.732Z,54.20
2018-02-21T08:56:41.131Z,61.73
2018-02-21T08:59:10.552Z,59.03
2018-02-21T09:01:39.967Z,60.83
2018-02-21T09:04:09.367Z,63.90
2018-02-21T09:06:38.816Z,52.57
2018-02-21T09:09:08.260Z,52.63
2018-02-21T09:11:37.684Z,49.63
2018-02-21T09:14:07.098Z,52.93
2018-02-21T09:16:37.329Z,58.23
2018-02-21T09:19:06.916Z,56.20
2018-02-21T09:21:36.379Z,58.50
2018-02-21T09:24:05.937Z,62.50
2018-02-21T09:26:35.061Z,55.00
2018-02-21T09:29:04.472Z,58.67
2018-02-21T09:31:33.884Z,58.30
2018-02-21T09:34:03.292Z,45.27
2018-02-21T09:36:32.692Z,54.13
2018-02-21T09:39:02.109Z,52.47
2018-02-21T09:41:31.240Z,62.47
2018-02-21T09:44:00.648Z,55.47
2018-02-21T09:46:30.119Z,56.87
2018-02-21T09:49:00.280Z,56.33
2018-02-21T09:51:29.702Z,57.17
2018-02-21T09:53:59.122Z,49.33
2018-02-21T09:56:28.534Z,61.67
2018-02-21T09:58:58.036Z,53.87
2018-02-21T10:01:27.440Z,51.03
2018-02-21T10:06:33.108Z,47.30
2018-02-21T10:09:02.775Z,49.53
2018-02-21T10:11:31.972Z,53.43
2018-02-21T10:14:01.548Z,53.60
2018-02-21T10:16:30.971Z,55.37
2018-02-21T10:19:00.391Z,42.60
2018-02-21T10:21:30.564Z,47.60
2018-02-21T10:23:59.976Z,49.07
2018-02-21T10:26:29.403Z,44.17
2018-02-21T10:28:58.635Z,37.80
2018-02-21T10:31:28.604Z,49.97
2018-02-21T10:33:58.060Z,44.10
2018-02-21T10:36:27.457Z,48.13
2018-02-21T10:38:56.856Z,47.50
2018-02-21T10:41:26.267Z,47.30
2018-02-21T10:43:56.450Z,48.27
2018-02-21T10:46:25.896Z,40.57
2018-02-21T10:48:55.318Z,52.67
2018-02-21T10:51:25.507Z,51.67
2018-02-21T10:53:54.954Z,47.57
2018-02-21T10:56:24.388Z,46.77
2018-02-21T10:58:54.573Z,48.40
2018-02-21T11:01:26.246Z,44.77
2018-02-21T11:03:55.672Z,46.80
2018-02-21T11:06:25.093Z,46.87
2018-02-21T11:08:54.497Z,42.97
2018-02-21T11:11:23.918Z,37.93
2018-02-21T11:13:53.352Z,33.33
2018-02-21T11:16:23.349Z,35.77
2018-02-21T11:18:52.782Z,33.70
2018-02-21T11:21:22.008Z,29.17
2018-02-21T11:23:51.421Z,31.57
2018-02-21T11:26:20.678Z,32.87
2018-02-21T11:28:50.117Z,25.63
2018-02-21T11:31:19.522Z,33.17
2018-02-21T11:33:48.920Z,25.70
2018-02-21T11:36:18.392Z,33.27
2018-02-21T11:38:47.782Z,28.63
2018-02-21T11:41:17.187Z,29.53
2018-02-21T11:43:46.604Z,28.10
2018-02-21T11:46:16.004Z,27.23
2018-02-21T11:48:45.528Z,29.80
2018-02-21T11:51:14.911Z,33.07
2018-02-21T11:53:44.312Z,31.73
2018-02-21T11:56:14.527Z,26.57
2018-02-21T11:58:43.944Z,25.63
2018-02-21T12:01:13.360Z,28.47
2018-02-21T12:03:42.761Z,28.70
2018-02-21T12:06:12.180Z,29.47
2018-02-21T12:08:41.581Z,28.80
2018-02-21T12:11:10.998Z,26.10
2018-02-21T12:13:40.410Z,31.47
2018-02-21T12:16:09.819Z,32.83
2018-02-21T12:18:39.218Z,30.27
2018-02-21T12:21:08.628Z,23.77
2018-02-21T12:23:38.039Z,28.80
2018-02-21T12:26:07.467Z,31.23
2018-02-21T12:28:36.920Z,32.13
2018-02-21T12:31:05.824Z,30.53
2018-02-21T12:33:35.230Z,30.10
2018-02-21T12:36:04.662Z,24.90
2018-02-21T12:38:33.883Z,27.03
2018-02-21T12:41:09.524Z,26.47
2018-02-21T12:43:38.924Z,26.97
2018-02-21T12:46:08.350Z,29.67
2018-02-21T12:48:37.766Z,33.10
2018-02-21T12:51:07.365Z,31.30
2018-02-21T12:53:36.773Z,35.40
2018-02-21T12:56:06.196Z,37.50
2018-02-21T12:58:35.632Z,30.27
2018-02-21T13:01:05.069Z,32.27
2018-02-21T13:03:34.468Z,31.70
2018-02-21T13:06:03.881Z,31.80
2018-02-21T13:08:33.282Z,32.57
2018-02-21T13:11:02.712Z,28.83
2018-02-21T13:13:32.126Z,35.47
2018-02-21T13:16:01.536Z,38.60
2018-02-21T13:18:30.671Z,30.20
2018-02-21T13:21:00.090Z,31.23
2018-02-21T13:23:29.716Z,31.03
2018-02-21T13:25:59.163Z,32.37
2018-02-21T13:28:29.331Z,30.63
2018-02-21T13:30:58.774Z,31.83
2018-02-21T13:33:28.230Z,28.40
2018-02-21T13:35:58.417Z,32.17
2018-02-21T13:38:27.808Z,33.57
2018-02-21T13:40:57.229Z,29.40
2018-02-21T13:43:26.628Z,32.40
2018-02-21T13:45:56.052Z,25.77
2018-02-21T13:48:25.449Z,30.83
2018-02-21T13:50:54.872Z,32.83
2018-02-21T13:53:24.273Z,38.40
2018-02-21T13:55:53.681Z,30.43
2018-02-21T13:58:23.882Z,31.27
2018-02-21T14:00:53.291Z,32.03
2018-02-21T14:03:22.724Z,26.43
2018-02-21T14:05:51.941Z,29.17
2018-02-21T14:08:21.189Z,31.93
2018-02-21T14:10:50.603Z,27.83
2018-02-21T14:13:20.158Z,32.37
2018-02-21T14:15:49.317Z,31.00
2018-02-21T14:18:18.782Z,32.13
2018-02-21T14:20:48.183Z,32.40
2018-02-21T14:23:17.619Z,33.23
2018-02-21T14:25:47.028Z,29.70
2018-02-21T14:28:16.661Z,29.03
2018-02-21T14:30:46.064Z,28.57
2018-02-21T14:33:15.460Z,25.17
2018-02-21T14:35:44.867Z,23.80
2018-02-21T14:38:14.287Z,27.90
2018-02-21T14:40:44.467Z,27.43
2018-02-21T14:43:13.880Z,26.17
2018-02-21T14:45:42.993Z,23.40
2018-02-21T14:48:12.400Z,30.70
2018-02-21T14:50:41.789Z,30.47
2018-02-21T14:53:11.204Z,26.83
2018-02-21T14:55:40.834Z,29.37
2018-02-21T14:58:10.236Z,30.00
2018-02-21T15:00:39.664Z,26.57
2018-02-21T15:03:09.062Z,24.73
2018-02-21T15:05:38.474Z,27.27
2018-02-21T15:08:07.873Z,32.83
2018-02-21T15:10:38.064Z,25.30
2018-02-21T15:13:07.525Z,28.10
2018-02-21T15:15:37.707Z,27.23
2018-02-21T15:18:07.134Z,22.60
2018-02-21T15:20:36.568Z,28.43
2018-02-21T15:23:05.973Z,24.83
2018-02-21T15:25:35.389Z,30.77
2018-02-21T15:28:04.802Z,27.47
2018-02-21T15:30:33.950Z,19.83
2018-02-21T15:33:04.853Z,26.67
2018-02-21T15:35:34.277Z,27.07
2018-02-21T15:38:03.680Z,26.33
2018-02-21T15:40:33.100Z,19.87
2018-02-21T15:43:02.496Z,24.20
2018-02-21T15:45:31.931Z,21.77
2018-02-21T15:48:01.148Z,19.67
2018-02-21T15:50:30.549Z,19.40
2018-02-21T15:52:59.976Z,20.80
2018-02-21T15:55:29.393Z,20.17
2018-02-21T15:57:58.818Z,21.27
2018-02-21T16:00:28.238Z,24.60
2018-02-21T16:02:57.653Z,19.30
2018-02-21T16:05:27.082Z,20.20
2018-02-21T16:07:56.489Z,19.73
2018-02-21T16:10:25.916Z,19.27
2018-02-21T16:12:56.097Z,18.67
2018-02-21T16:15:25.488Z,19.80
2018-02-21T16:17:54.901Z,19.00
2018-02-21T16:20:24.027Z,21.43
2018-02-21T16:22:53.667Z,19.63
2018-02-21T16:25:23.067Z,23.30
2018-02-21T16:27:52.489Z,24.10
2018-02-21T16:30:21.908Z,19.70
2018-02-21T16:32:51.339Z,17.53
2018-02-21T16:35:20.747Z,21.37
2018-02-21T16:37:50.172Z,23.77
2018-02-21T16:40:19.625Z,23.53
2018-02-21T16:42:49.054Z,22.83
2018-02-21T16:45:19.124Z,21.07
2018-02-21T16:47:48.754Z,21.03
2018-02-21T16:50:17.956Z,21.63
2018-02-21T16:52:47.380Z,24.30
2018-02-21T16:55:16.850Z,19.83
2018-02-21T16:57:46.041Z,20.30
2018-02-21T17:00:16.244Z,19.27
2018-02-21T17:02:53.606Z,21.53
2018-02-21T17:05:23.796Z,18.33
2018-02-21T17:07:53.221Z,19.27
2018-02-21T17:10:22.636Z,24.10
2018-02-21T17:12:52.070Z,19.67
2018-02-21T17:15:21.522Z,21.47
2018-02-21T17:17:50.944Z,22.20
2018-02-21T17:20:20.414Z,20.33
2018-02-21T17:22:49.981Z,25.00
2018-02-21T17:25:19.392Z,21.93
2018-02-21T17:27:48.811Z,21.20
2018-02-21T17:30:18.243Z,20.53
2018-02-21T17:32:47.677Z,23.83
2018-02-21T17:35:17.102Z,20.77
2018-02-21T17:37:46.505Z,22.13
2018-02-21T17:40:15.921Z,20.70
2018-02-21T17:42:45.315Z,23.70
2018-02-21T17:45:14.748Z,24.63
2018-02-21T17:47:44.161Z,20.90
2018-02-21T17:50:13.630Z,21.57
2018-02-21T17:52:43.804Z,22.13
2018-02-21T17:55:13.227Z,21.53
2018-02-21T17:57:42.637Z,24.27
2018-02-21T18:00:12.038Z,23.40
2018-02-21T18:02:41.454Z,22.67
2018-02-21T18:05:10.864Z,24.07
2018-02-21T18:07:40.276Z,23.53
2018-02-21T18:10:09.678Z,23.20
2018-02-21T18:12:39.858Z,25.03
2018-02-21T18:15:09.262Z,26.13
2018-02-21T18:17:38.725Z,29.00
2018-02-21T18:20:08.301Z,25.03
2018-02-21T18:22:37.704Z,28.30
2018-02-21T18:25:07.140Z,29.37
2018-02-21T18:27:36.549Z,24.77
2018-02-21T18:30:06.022Z,28.57
2018-02-21T18:32:36.186Z,29.93
2018-02-21T18:35:05.616Z,30.07
2018-02-21T18:37:35.024Z,28.70
2018-02-21T18:40:04.123Z,27.20
2018-02-21T18:42:33.638Z,25.20
2018-02-21T18:45:03.054Z,28.10
2018-02-21T18:47:32.465Z,27.37
2018-02-21T18:50:01.943Z,22.90
2018-02-21T18:52:31.342Z,26.27
2018-02-21T18:55:00.422Z,27.73
2018-02-21T18:57:29.853Z,23.47
2018-02-21T18:59:59.286Z,25.73
2018-02-21T19:02:28.753Z,23.87
2018-02-21T19:04:58.172Z,25.70
2018-02-21T19:07:27.603Z,26.47
2018-02-21T19:09:57.050Z,27.20
2018-02-21T19:12:26.506Z,28.70
2018-02-21T19:14:55.901Z,26.63
2018-02-21T19:17:25.323Z,30.23
2018-02-21T19:19:54.754Z,26.93
2018-02-21T19:22:24.954Z,24.00
2018-02-21T19:24:54.388Z,24.87
2018-02-21T19:27:24.585Z,27.10
2018-02-21T19:29:54.052Z,30.53
2018-02-21T19:32:24.251Z,29.70
2018-02-21T19:34:53.684Z,24.50
2018-02-21T19:37:23.121Z,28.50
2018-02-21T19:39:53.378Z,25.37
2018-02-21T19:42:22.858Z,26.93
2018-02-21T19:44:52.470Z,26.50
2018-02-21T19:47:21.920Z,24.13
2018-02-21T19:49:51.345Z,23.57
2018-02-21T19:52:20.810Z,26.00
2018-02-21T19:54:50.233Z,26.60
2018-02-21T19:57:19.672Z,25.20
2018-02-21T19:59:49.082Z,27.27
2018-02-21T20:02:19.668Z,25.80
2018-02-21T20:04:49.126Z,27.30
2018-02-21T20:07:18.608Z,30.23
2018-02-21T20:09:48.053Z,26.17
2018-02-21T20:12:17.480Z,26.63
2018-02-21T20:14:46.890Z,26.87
2018-02-21T20:17:16.318Z,29.53
2018-02-21T20:19:45.527Z,31.30
2018-02-21T20:22:14.951Z,30.10
2018-02-21T20:24:44.114Z,27.30
2018-02-21T20:27:13.521Z,26.00
2018-02-21T20:29:42.944Z,28.33
2018-02-21T20:32:12.362Z,25.50
2018-02-21T20:34:41.794Z,26.63
2018-02-21T20:37:11.203Z,31.07
2018-02-21T20:39:40.621Z,24.37
2018-02-21T20:42:10.028Z,24.83
2018-02-21T20:44:39.484Z,24.90
2018-02-21T20:47:10.391Z,24.37
2018-02-21T20:49:39.795Z,23.40
2018-02-21T20:52:09.212Z,27.43
2018-02-21T20:54:38.635Z,26.23
2018-02-21T20:57:08.065Z,26.17
2018-02-21T20:59:37.489Z,22.57
2018-02-21T21:02:06.930Z,25.30
2018-02-21T21:04:37.124Z,24.53
2018-02-21T21:07:07.050Z,24.40
2018-02-21T21:09:36.508Z,23.97
2018-02-21T21:12:06.707Z,29.00
2018-02-21T21:14:36.120Z,29.77
2018-02-21T21:17:05.647Z,25.47
2018-02-21T21:19:35.067Z,23.43
2018-02-21T21:22:04.658Z,26.60
2018-02-21T21:24:34.062Z,26.63
2018-02-21T21:27:03.480Z,25.80
2018-02-21T21:29:32.899Z,21.00
2018-02-21T21:32:02.297Z,25.63
2018-02-21T21:34:31.534Z,24.37
2018-02-21T21:37:00.969Z,28.53
2018-02-21T21:39:30.406Z,25.00
2018-02-21T21:42:00.592Z,23.27
2018-02-21T21:44:29.822Z,26.57
2018-02-21T21:46:59.263Z,29.00
2018-02-21T21:49:32.868Z,26.53
2018-02-21T21:51:59.121Z,27.23
2018-02-21T21:54:28.534Z,24.93
2018-02-21T21:56:58.750Z,24.27
2018-02-21T21:59:28.162Z,24.43
2018-02-21T22:01:57.667Z,24.80
2018-02-21T22:04:27.150Z,25.33
2018-02-21T22:06:56.719Z,25.90
2018-02-21T22:09:26.178Z,26.20
2018-02-21T22:11:56.378Z,30.67
2018-02-21T22:14:26.041Z,24.87
2018-02-21T22:16:55.481Z,23.87
2018-02-21T22:19:24.869Z,23.33
2018-02-21T22:21:54.313Z,22.50
2018-02-21T22:24:23.749Z,24.13
2018-02-21T22:26:54.691Z,25.20
2018-02-21T22:29:24.624Z,25.87
2018-02-21T22:31:54.099Z,23.37
2018-02-21T22:34:23.515Z,24.03
2018-02-21T22:36:52.966Z,24.00
2018-02-21T22:39:22.392Z,26.80
2018-02-21T22:41:51.813Z,28.67
2018-02-21T22:44:21.424Z,22.17
2018-02-21T22:46:51.073Z,27.13
2018-02-21T22:49:21.357Z,24.47
2018-02-21T22:51:50.759Z,25.97
2018-02-21T22:54:20.282Z,24.60
2018-02-21T22:56:49.687Z,25.17
2018-02-21T22:59:19.138Z,26.87
2018-02-21T23:01:48.586Z,24.10
2018-02-21T23:04:18.809Z,24.77
2018-02-21T23:06:49.076Z,26.07
2018-02-21T23:09:18.782Z,26.57
2018-02-21T23:11:48.976Z,27.70
2018-02-21T23:14:18.570Z,24.00
2018-02-21T23:16:47.696Z,25.23
2018-02-21T23:19:17.112Z,27.37
2018-02-21T23:21:46.525Z,24.27
2018-02-21T23:24:16.025Z,25.87
2018-02-21T23:26:45.543Z,28.33
2018-02-21T23:29:14.961Z,25.13
2018-02-21T23:31:44.539Z,23.20
2018-02-21T23:34:14.005Z,28.17
2018-02-21T23:36:43.417Z,26.60
2018-02-21T23:39:12.861Z,23.93
2018-02-21T23:41:42.256Z,26.70
2018-02-21T23:44:11.670Z,26.23
2018-02-21T23:46:41.087Z,24.87
2018-02-21T23:49:10.495Z,24.53
2018-02-21T23:51:39.744Z,24.20
2018-02-21T23:54:09.157Z,28.43
2018-02-21T23:56:39.341Z,27.27
2018-02-21T23:59:08.783Z,26.03
